createdAt,value
2022-10-13T00:01:46.222Z,7.77
2022-10-13T00:04:14.012Z,8.07
2022-10-13T00:06:41.723Z,10.13
2022-10-13T00:09:09.419Z,7.30
2022-10-13T00:11:37.123Z,9.83
2022-10-13T00:14:06.435Z,8.03
2022-10-13T00:16:34.590Z,7.53
2022-10-13T00:19:03.842Z,8.93
2022-10-13T00:21:31.762Z,7.33
2022-10-13T00:23:59.579Z,7.97
2022-10-13T00:26:28.112Z,8.13
2022-10-13T00:28:56.299Z,7.30
2022-10-13T00:31:26.788Z,6.50
2022-10-13T00:33:54.883Z,8.00
2022-10-13T00:36:24.929Z,7.93
2022-10-13T00:38:53.483Z,11.93
2022-10-13T00:41:21.942Z,7.40
2022-10-13T00:43:53.421Z,7.47
2022-10-13T00:46:23.165Z,6.97
2022-10-13T00:48:52.759Z,7.97
2022-10-13T00:51:26.496Z,7.70
2022-10-13T00:53:55.211Z,6.27
2022-10-13T00:56:24.345Z,10.17
2022-10-13T00:58:53.394Z,7.03
2022-10-13T01:01:21.262Z,5.73
2022-10-13T01:03:49.179Z,7.30
2022-10-13T01:06:21.183Z,5.90
2022-10-13T01:08:52.814Z,5.80
2022-10-13T01:11:44.877Z,7.93
2022-10-13T01:14:20.641Z,7.70
2022-10-13T01:16:58.821Z,9.50
2022-10-13T01:20:03.178Z,7.03
2022-10-13T01:22:45.108Z,9.23
2022-10-13T01:25:29.201Z,6.70
2022-10-13T01:28:19.745Z,10.93
2022-10-13T01:30:53.041Z,10.13
2022-10-13T01:33:31.348Z,9.00
2022-10-13T01:36:09.501Z,6.00
2022-10-13T01:38:52.670Z,11.37
2022-10-13T01:41:26.513Z,7.93
2022-10-13T01:44:01.420Z,7.77
2022-10-13T01:46:33.435Z,6.40
2022-10-13T01:49:04.796Z,6.97
2022-10-13T01:51:34.451Z,6.97
2022-10-13T01:54:02.171Z,9.47
2022-10-13T01:56:29.954Z,9.57
2022-10-13T01:59:00.416Z,7.20
2022-10-13T02:01:53.025Z,6.37
2022-10-13T02:04:29.816Z,6.07
2022-10-13T02:07:03.288Z,6.87
2022-10-13T02:09:38.537Z,8.10
2022-10-13T02:12:10.887Z,8.03
2022-10-13T02:14:41.868Z,9.23
2022-10-13T02:17:11.738Z,7.87
2022-10-13T02:19:40.811Z,9.97
2022-10-13T02:22:12.089Z,7.67
2022-10-13T02:24:39.879Z,7.63
2022-10-13T02:27:09.148Z,7.20
2022-10-13T02:29:50.333Z,6.87
2022-10-13T02:32:19.731Z,8.07
2022-10-13T02:34:47.646Z,9.07
2022-10-13T02:37:15.359Z,8.73
2022-10-13T02:39:43.159Z,9.10
2022-10-13T02:42:10.883Z,7.17
2022-10-13T02:44:40.047Z,10.20
2022-10-13T02:47:07.789Z,9.23
2022-10-13T02:49:36.806Z,9.67
2022-10-13T02:52:04.508Z,8.93
2022-10-13T02:54:32.219Z,6.83
2022-10-13T02:56:59.959Z,7.37
2022-10-13T02:59:27.657Z,9.27
2022-10-13T03:01:56.105Z,9.07
2022-10-13T03:04:23.828Z,8.63
2022-10-13T03:06:52.894Z,8.53
2022-10-13T03:09:20.624Z,8.10
2022-10-13T03:11:48.367Z,6.87
2022-10-13T03:14:16.126Z,8.20
2022-10-13T03:16:43.814Z,6.63
2022-10-13T03:19:11.844Z,8.60
2022-10-13T03:21:40.314Z,7.60
2022-10-13T03:24:09.610Z,8.53
2022-10-13T03:26:37.315Z,9.77
2022-10-13T03:29:05.063Z,8.00
2022-10-13T03:31:32.764Z,8.60
2022-10-13T03:34:00.482Z,7.30
2022-10-13T03:36:28.303Z,7.83
2022-10-13T03:38:56.104Z,8.00
2022-10-13T03:41:25.174Z,7.93
2022-10-13T03:43:52.899Z,9.40
2022-10-13T03:46:21.020Z,8.00
2022-10-13T03:48:49.066Z,8.50
2022-10-13T03:51:19.535Z,9.17
2022-10-13T03:53:47.765Z,9.70
2022-10-13T03:56:17.831Z,8.60
2022-10-13T03:58:46.897Z,8.27
2022-10-13T04:01:16.854Z,9.77
2022-10-13T04:03:44.590Z,8.37
2022-10-13T04:06:12.303Z,7.73
2022-10-13T04:08:40.050Z,9.20
2022-10-13T04:11:11.359Z,8.83
2022-10-13T04:13:39.214Z,13.10
2022-10-13T04:16:16.295Z,9.63
2022-10-13T04:18:45.018Z,7.03
2022-10-13T04:21:14.887Z,8.73
2022-10-13T04:23:42.808Z,10.33
2022-10-13T04:26:17.850Z,9.97
2022-10-13T04:28:46.557Z,8.50
2022-10-13T04:31:16.348Z,9.07
2022-10-13T04:33:44.315Z,12.57
2022-10-13T04:36:13.971Z,7.27
2022-10-13T04:38:41.797Z,6.97
2022-10-13T04:41:10.955Z,10.40
2022-10-13T04:43:38.741Z,7.50
2022-10-13T04:46:10.349Z,7.73
2022-10-13T04:48:39.410Z,8.00
2022-10-13T04:51:09.576Z,10.33
2022-10-13T04:53:37.645Z,9.13
2022-10-13T04:56:08.382Z,7.87
2022-10-13T04:58:36.870Z,8.57
2022-10-13T05:01:05.838Z,10.43
2022-10-13T05:03:34.022Z,9.43
2022-10-13T05:06:03.280Z,9.67
2022-10-13T05:08:33.122Z,12.80
2022-10-13T05:11:02.543Z,12.40
2022-10-13T05:13:30.890Z,12.97
2022-10-13T05:15:59.338Z,12.00
2022-10-13T05:18:27.044Z,12.40
2022-10-13T05:20:54.746Z,10.43
2022-10-13T05:23:24.210Z,11.50
2022-10-13T05:25:52.170Z,8.93
2022-10-13T05:28:20.047Z,9.40
2022-10-13T05:30:47.793Z,13.80
2022-10-13T05:33:15.482Z,11.03
2022-10-13T05:35:43.213Z,10.23
2022-10-13T05:38:10.948Z,9.37
2022-10-13T05:40:39.990Z,9.17
2022-10-13T05:43:07.694Z,16.37
2022-10-13T05:45:35.481Z,11.17
2022-10-13T05:48:03.203Z,11.13
2022-10-13T05:50:30.987Z,9.87
2022-10-13T05:52:58.766Z,11.93
2022-10-13T05:55:26.679Z,10.10
2022-10-13T05:57:55.755Z,12.50
2022-10-13T06:00:23.569Z,14.30
2022-10-13T06:02:55.803Z,11.57
2022-10-13T06:05:25.861Z,8.77
2022-10-13T06:07:55.638Z,10.17
2022-10-13T06:10:23.901Z,14.37
2022-10-13T06:12:51.813Z,11.87
2022-10-13T06:15:24.437Z,11.30
2022-10-13T06:17:54.919Z,14.23
2022-10-13T06:20:22.633Z,12.53
2022-10-13T06:22:51.001Z,14.63
2022-10-13T06:25:18.966Z,15.17
2022-10-13T06:27:46.714Z,15.40
2022-10-13T06:30:14.477Z,11.83
2022-10-13T06:32:43.542Z,11.13
2022-10-13T06:35:11.339Z,13.30
2022-10-13T06:37:39.173Z,12.13
2022-10-13T06:40:08.163Z,18.13
2022-10-13T06:42:35.862Z,14.27
2022-10-13T06:45:04.631Z,9.93
2022-10-13T06:47:32.341Z,15.27
2022-10-13T06:50:01.352Z,16.60
2022-10-13T06:52:29.068Z,10.30
2022-10-13T06:54:56.755Z,10.20
2022-10-13T06:57:24.513Z,14.63
2022-10-13T06:59:53.035Z,12.07
2022-10-13T07:02:20.997Z,14.93
2022-10-13T07:04:48.864Z,15.67
2022-10-13T07:07:17.958Z,21.63
2022-10-13T07:09:45.637Z,22.73
2022-10-13T07:12:14.495Z,24.00
2022-10-13T07:14:43.886Z,18.10
2022-10-13T07:17:11.828Z,17.60
2022-10-13T07:19:39.531Z,15.63
2022-10-13T07:22:07.277Z,12.80
2022-10-13T07:24:36.306Z,14.43
2022-10-13T07:27:07.635Z,17.23
2022-10-13T07:29:35.802Z,15.80
2022-10-13T07:32:03.551Z,13.57
2022-10-13T07:34:31.293Z,20.70
2022-10-13T07:36:59.039Z,16.80
2022-10-13T07:39:26.847Z,17.47
2022-10-13T07:41:55.879Z,14.07
2022-10-13T07:44:23.701Z,13.17
2022-10-13T07:46:51.430Z,16.67
2022-10-13T07:49:19.156Z,15.87
2022-10-13T07:51:46.856Z,14.97
2022-10-13T07:54:14.713Z,21.87
2022-10-13T07:56:42.413Z,20.33
2022-10-13T07:59:12.670Z,15.53
2022-10-13T08:01:41.032Z,17.67
2022-10-13T08:04:08.851Z,18.27
2022-10-13T08:06:36.834Z,21.97
2022-10-13T08:09:04.943Z,18.73
2022-10-13T08:11:33.085Z,19.33
2022-10-13T08:14:01.640Z,17.97
2022-10-13T08:16:32.353Z,18.00
2022-10-13T08:19:00.628Z,25.47
2022-10-13T08:24:18.441Z,16.60
2022-10-13T08:26:47.466Z,19.97
2022-10-13T08:29:24.070Z,15.20
2022-10-13T08:31:54.300Z,14.40
2022-10-13T08:34:22.650Z,13.57
2022-10-13T08:36:53.134Z,14.18
2022-10-13T08:39:22.130Z,15.60
2022-10-13T08:41:50.278Z,14.73
2022-10-13T08:45:05.859Z,14.40
2022-10-13T08:47:19.391Z,12.85
2022-10-13T08:49:47.470Z,16.58
2022-10-13T08:52:20.730Z,14.40
2022-10-13T08:54:49.093Z,14.95
2022-10-13T08:57:17.310Z,16.50
2022-10-13T08:59:45.369Z,13.98
2022-10-13T09:02:17.073Z,14.80
2022-10-13T09:04:49.291Z,14.68
2022-10-13T09:07:20.525Z,11.45
2022-10-13T09:09:51.735Z,13.00
2022-10-13T09:12:22.199Z,13.82
2022-10-13T09:14:58.567Z,15.20
2022-10-13T09:17:28.702Z,12.80
2022-10-13T09:20:01.783Z,11.82
2022-10-13T09:22:31.468Z,14.73
2022-10-13T09:25:10.093Z,14.48
2022-10-13T09:27:46.008Z,18.10
2022-10-13T09:30:27.468Z,17.08
2022-10-13T09:33:07.408Z,15.93
2022-10-13T09:35:35.296Z,14.32
2022-10-13T09:38:04.781Z,13.30
2022-10-13T09:40:32.635Z,14.30
2022-10-13T09:43:02.568Z,17.30
2022-10-13T09:45:31.116Z,13.65
2022-10-13T09:48:03.262Z,15.68
2022-10-13T09:50:32.874Z,13.15
2022-10-13T09:53:16.507Z,16.95
2022-10-13T09:55:46.789Z,15.32
2022-10-13T09:58:20.516Z,11.88
2022-10-13T10:00:50.877Z,14.48
2022-10-13T10:03:23.001Z,13.30
2022-10-13T10:05:53.706Z,13.80
2022-10-13T10:08:33.609Z,12.93
2022-10-13T10:11:13.169Z,12.95
2022-10-13T10:13:40.889Z,18.77
2022-10-13T10:16:13.446Z,13.55
2022-10-13T10:18:47.763Z,11.10
2022-10-13T10:21:25.530Z,11.82
2022-10-13T10:23:58.242Z,16.50
2022-10-13T10:26:36.192Z,18.88
2022-10-13T10:29:23.281Z,15.85
2022-10-13T10:32:15.920Z,18.13
2022-10-13T10:34:51.615Z,15.07
2022-10-13T10:37:26.351Z,16.08
2022-10-13T10:40:04.597Z,16.63
2022-10-13T10:42:52.687Z,16.35
2022-10-13T10:45:24.054Z,14.50
2022-10-13T10:47:56.243Z,20.50
2022-10-13T10:50:26.037Z,18.75
2022-10-13T10:53:03.500Z,18.63
2022-10-13T10:55:35.203Z,16.98
2022-10-13T10:58:21.596Z,18.73
2022-10-13T11:00:56.215Z,14.25
2022-10-13T11:03:35.812Z,13.05
2022-10-13T11:06:06.839Z,15.25
2022-10-13T11:08:41.891Z,12.95
2022-10-13T11:11:39.115Z,14.27
2022-10-13T11:14:39.544Z,14.00
2022-10-13T11:17:29.615Z,10.90
2022-10-13T11:19:58.320Z,14.50
2022-10-13T11:22:28.987Z,12.00
2022-10-13T11:25:02.524Z,11.57
2022-10-13T11:27:42.580Z,12.10
2022-10-13T11:30:50.164Z,12.73
2022-10-13T11:33:35.306Z,14.02
2022-10-13T11:36:32.146Z,12.27
2022-10-13T11:39:09.903Z,25.67
2022-10-13T11:41:45.623Z,12.35
2022-10-13T11:44:21.922Z,16.63
2022-10-13T11:47:01.144Z,16.83
2022-10-13T11:49:45.555Z,17.73
2022-10-13T11:52:31.892Z,20.88
2022-10-13T11:55:06.313Z,16.35
2022-10-13T11:57:34.029Z,14.20
2022-10-13T12:00:01.725Z,11.15
2022-10-13T12:02:29.502Z,15.95
2022-10-13T12:05:06.198Z,14.60
2022-10-13T12:07:37.046Z,15.98
2022-10-13T12:10:09.701Z,19.70
2022-10-13T12:12:37.750Z,15.68
2022-10-13T12:15:30.795Z,19.08
2022-10-13T12:17:58.684Z,14.63
2022-10-13T12:20:28.470Z,16.75
2022-10-13T12:22:57.562Z,16.10
2022-10-13T12:25:29.102Z,16.50
2022-10-13T12:28:00.518Z,16.33
2022-10-13T12:30:30.703Z,17.98
2022-10-13T12:32:59.654Z,16.70
2022-10-13T12:35:29.904Z,19.40
2022-10-13T12:37:58.919Z,15.13
2022-10-13T12:40:29.359Z,20.80
2022-10-13T12:42:57.510Z,17.17
2022-10-13T12:45:31.774Z,15.23
2022-10-13T12:47:59.597Z,16.15
2022-10-13T12:50:38.748Z,18.65
2022-10-13T12:53:13.471Z,16.13
2022-10-13T12:55:51.251Z,16.80
2022-10-13T12:58:24.890Z,15.75
2022-10-13T13:01:10.525Z,17.45
2022-10-13T13:03:39.749Z,15.30
2022-10-13T13:06:22.587Z,17.40
2022-10-13T13:09:28.935Z,17.02
2022-10-13T13:12:23.965Z,18.83
2022-10-13T13:14:54.963Z,20.90
2022-10-13T13:17:53.002Z,20.50
2022-10-13T13:20:23.766Z,14.55
2022-10-13T13:22:51.864Z,19.33
2022-10-13T13:25:19.745Z,18.70
2022-10-13T13:27:48.861Z,17.23
2022-10-13T13:30:18.274Z,21.92
2022-10-13T13:32:46.146Z,17.88
2022-10-13T13:35:14.156Z,16.23
2022-10-13T13:37:45.787Z,14.00
2022-10-13T13:40:16.622Z,12.52
2022-10-13T13:42:44.522Z,14.05
2022-10-13T13:45:14.983Z,19.92
2022-10-13T13:47:43.399Z,14.90
2022-10-13T13:50:17.020Z,15.63
2022-10-13T13:52:44.731Z,15.50
2022-10-13T13:55:12.489Z,13.85
2022-10-13T13:57:40.200Z,22.10
2022-10-13T14:00:09.124Z,15.35
2022-10-13T14:02:38.197Z,12.32
2022-10-13T14:05:07.515Z,15.95
2022-10-13T14:07:35.276Z,12.18
2022-10-13T14:10:03.105Z,13.98
2022-10-13T14:12:31.311Z,11.55
2022-10-13T14:14:59.402Z,13.65
2022-10-13T14:17:27.178Z,12.35
2022-10-13T14:19:56.505Z,14.60
2022-10-13T14:22:24.647Z,13.52
2022-10-13T14:24:52.704Z,11.68
2022-10-13T14:27:20.504Z,15.38
2022-10-13T14:29:48.240Z,13.27
2022-10-13T14:32:15.977Z,12.77
2022-10-13T14:34:43.709Z,15.43
2022-10-13T14:37:12.760Z,13.40
2022-10-13T14:39:40.462Z,12.35
2022-10-13T14:42:08.219Z,13.00
2022-10-13T14:44:35.916Z,21.40
2022-10-13T14:47:03.613Z,15.95
2022-10-13T14:49:31.419Z,16.40
2022-10-13T14:51:59.117Z,13.45
2022-10-13T14:54:28.300Z,15.35
2022-10-13T14:56:56.088Z,80.70
2022-10-13T14:59:23.842Z,16.20
2022-10-13T15:01:51.553Z,11.52
2022-10-13T15:04:19.371Z,11.40
2022-10-13T15:06:47.058Z,16.98
2022-10-13T15:09:14.818Z,13.25
2022-10-13T15:11:46.171Z,13.18
2022-10-13T15:14:13.887Z,14.40
2022-10-13T15:16:41.637Z,13.35
2022-10-13T15:19:09.349Z,12.75
2022-10-13T15:21:37.093Z,15.02
2022-10-13T15:24:05.108Z,15.45
2022-10-13T15:26:33.630Z,13.57
2022-10-13T15:29:03.026Z,15.45
2022-10-13T15:31:31.343Z,11.32
2022-10-13T15:33:59.064Z,11.73
2022-10-13T15:36:26.776Z,13.88
2022-10-13T15:38:54.645Z,13.13
2022-10-13T15:41:23.643Z,15.57
2022-10-13T15:43:51.405Z,13.70
2022-10-13T15:46:24.201Z,11.63
2022-10-13T15:48:53.280Z,14.35
2022-10-13T15:51:24.052Z,11.52
2022-10-13T15:53:52.161Z,12.85
2022-10-13T15:56:19.983Z,12.32
2022-10-13T15:58:47.702Z,10.88
2022-10-13T16:01:15.701Z,13.70
2022-10-13T16:03:44.863Z,12.80
2022-10-13T16:06:13.751Z,11.25
2022-10-13T16:08:44.002Z,26.45
2022-10-13T16:11:14.055Z,29.67
2022-10-13T16:13:42.415Z,20.52
2022-10-13T16:16:10.598Z,16.95
2022-10-13T16:18:40.223Z,17.63
2022-10-13T16:21:18.623Z,16.23
2022-10-13T16:23:47.395Z,17.40
2022-10-13T16:26:17.253Z,14.43
2022-10-13T16:28:45.359Z,15.50
2022-10-13T16:31:15.353Z,17.10
2022-10-13T16:33:44.187Z,14.48
2022-10-13T16:36:15.352Z,18.02
2022-10-13T16:38:43.395Z,18.33
2022-10-13T16:41:14.523Z,12.82
2022-10-13T16:43:43.022Z,11.70
2022-10-13T16:46:13.291Z,13.02
2022-10-13T16:48:42.281Z,13.55
2022-10-13T16:51:12.918Z,13.85
2022-10-13T16:53:42.243Z,14.32
2022-10-13T16:56:10.640Z,13.27
2022-10-13T16:58:43.325Z,16.63
2022-10-13T17:01:12.022Z,16.40
2022-10-13T17:03:40.992Z,16.55
2022-10-13T17:06:08.929Z,11.88
2022-10-13T17:08:37.482Z,14.80
2022-10-13T17:11:08.030Z,16.15
2022-10-13T17:13:37.020Z,12.80
2022-10-13T17:16:05.201Z,14.60
2022-10-13T17:18:32.940Z,15.80
2022-10-13T17:21:02.042Z,20.20
2022-10-13T17:23:31.148Z,16.95
2022-10-13T17:26:03.321Z,14.30
2022-10-13T17:28:32.903Z,17.35
2022-10-13T17:31:02.092Z,16.15
2022-10-13T17:33:30.921Z,16.65
2022-10-13T17:36:00.990Z,18.00
2022-10-13T17:38:29.056Z,19.52
2022-10-13T17:41:01.546Z,19.13
2022-10-13T17:43:29.955Z,17.08
2022-10-13T17:46:34.510Z,18.03
2022-10-13T17:48:56.526Z,23.43
2022-10-13T17:51:24.518Z,13.55
2022-10-13T17:53:53.386Z,18.77
2022-10-13T17:56:23.861Z,14.73
2022-10-13T17:58:52.408Z,13.67
2022-10-13T18:01:23.654Z,16.23
2022-10-13T18:03:53.772Z,14.23
2022-10-13T18:06:22.263Z,15.13
2022-10-13T18:08:51.307Z,14.93
2022-10-13T18:11:21.906Z,13.20
2022-10-13T18:13:49.969Z,16.10
2022-10-13T18:16:19.913Z,16.33
2022-10-13T18:18:50.134Z,14.30
2022-10-13T18:21:22.410Z,13.97
2022-10-13T18:23:50.214Z,13.17
2022-10-13T18:26:20.003Z,15.83
2022-10-13T18:28:49.427Z,15.13
2022-10-13T18:31:18.665Z,20.33
2022-10-13T18:33:48.169Z,18.03
2022-10-13T18:36:19.742Z,14.73
2022-10-13T18:38:48.058Z,14.03
2022-10-13T18:41:17.092Z,18.83
2022-10-13T18:43:44.897Z,18.13
2022-10-13T18:46:12.834Z,18.33
2022-10-13T18:48:40.705Z,22.47
2022-10-13T18:51:11.612Z,25.00
2022-10-13T18:53:41.194Z,22.27
2022-10-13T18:56:10.599Z,21.53
2022-10-13T18:58:38.783Z,16.87
2022-10-13T19:01:08.278Z,17.63
2022-10-13T19:03:37.713Z,20.27
2022-10-13T19:06:06.874Z,19.33
2022-10-13T19:08:36.336Z,21.57
2022-10-13T19:11:11.969Z,19.20
2022-10-13T19:13:40.203Z,20.67
2022-10-13T19:16:08.586Z,18.50
2022-10-13T19:18:36.692Z,19.00
2022-10-13T19:21:05.035Z,19.87
2022-10-13T19:23:32.995Z,20.27
2022-10-13T19:26:09.980Z,20.70
2022-10-13T19:28:40.482Z,22.00
2022-10-13T19:31:12.137Z,20.13
2022-10-13T19:33:44.762Z,20.63
2022-10-13T19:36:20.638Z,20.77
2022-10-13T19:38:48.342Z,26.63
2022-10-13T19:41:17.585Z,19.37
2022-10-13T19:43:45.359Z,20.37
2022-10-13T19:46:13.256Z,25.73
2022-10-13T19:48:41.261Z,24.10
2022-10-13T19:51:10.169Z,19.70
2022-10-13T19:53:38.894Z,18.70
2022-10-13T19:56:07.591Z,17.97
2022-10-13T19:58:37.006Z,17.17
2022-10-13T20:01:06.750Z,19.80
2022-10-13T20:03:34.663Z,20.37
2022-10-13T20:06:05.028Z,22.37
2022-10-13T20:08:32.762Z,22.30
2022-10-13T20:11:01.025Z,18.90
2022-10-13T20:13:28.717Z,25.53
2022-10-13T20:15:57.730Z,20.17
2022-10-13T20:18:25.441Z,26.10
2022-10-13T20:20:53.124Z,18.30
2022-10-13T20:23:20.851Z,19.40
2022-10-13T20:25:48.541Z,17.83
2022-10-13T20:28:16.312Z,19.03
2022-10-13T20:30:44.023Z,21.37
2022-10-13T20:33:13.067Z,21.53
2022-10-13T20:35:40.776Z,21.27
2022-10-13T20:38:08.479Z,16.40
2022-10-13T20:40:36.169Z,23.00
2022-10-13T20:43:03.853Z,16.97
2022-10-13T20:45:31.567Z,18.27
2022-10-13T20:47:59.255Z,18.20
2022-10-13T20:50:28.262Z,17.07
2022-10-13T20:52:55.951Z,19.90
2022-10-13T20:55:23.761Z,17.43
2022-10-13T20:57:52.540Z,20.70
2022-10-13T21:00:20.378Z,18.60
2022-10-13T21:02:48.475Z,21.20
2022-10-13T21:05:16.573Z,19.80
2022-10-13T21:07:45.687Z,19.60
2022-10-13T21:10:13.392Z,22.47
2022-10-13T21:12:41.147Z,22.53
2022-10-13T21:15:10.379Z,28.10
2022-10-13T21:17:42.251Z,31.13
2022-10-13T21:20:11.328Z,26.67
2022-10-13T21:22:39.067Z,31.63
2022-10-13T21:25:09.026Z,28.47
2022-10-13T21:27:36.754Z,29.30
2022-10-13T21:30:05.142Z,26.50
2022-10-13T21:32:32.927Z,31.07
2022-10-13T21:35:00.655Z,28.23
2022-10-13T21:37:28.379Z,44.67
2022-10-13T21:39:56.070Z,36.40
2022-10-13T21:42:25.173Z,36.97
2022-10-13T21:44:53.063Z,32.13
2022-10-13T21:47:21.126Z,30.80
2022-10-13T21:49:49.110Z,30.80
2022-10-13T21:52:16.950Z,27.40
2022-10-13T21:54:44.642Z,33.27
2022-10-13T21:57:12.367Z,33.57
2022-10-13T21:59:41.377Z,34.23
2022-10-13T22:02:09.139Z,29.77
2022-10-13T22:04:37.004Z,32.63
2022-10-13T22:07:04.963Z,28.43
2022-10-13T22:09:33.057Z,31.80
2022-10-13T22:12:00.799Z,32.77
2022-10-13T22:14:28.591Z,31.33
2022-10-13T22:16:57.637Z,30.20
2022-10-13T22:19:25.387Z,29.70
2022-10-13T22:21:53.128Z,32.70
2022-10-13T22:24:22.448Z,31.27
2022-10-13T22:26:50.770Z,34.03
2022-10-13T22:29:21.678Z,37.00
2022-10-13T22:31:49.461Z,32.23
2022-10-13T22:34:19.192Z,37.57
2022-10-13T22:36:46.985Z,35.50
2022-10-13T22:39:15.126Z,37.77
2022-10-13T22:41:43.007Z,34.37
2022-10-13T22:44:11.171Z,35.23
2022-10-13T22:46:39.336Z,33.97
2022-10-13T22:49:08.396Z,35.77
2022-10-13T22:51:38.246Z,33.43
2022-10-13T22:54:06.452Z,33.20
2022-10-13T22:56:35.628Z,35.60
2022-10-13T22:59:05.469Z,37.40
2022-10-13T23:01:33.301Z,35.67
2022-10-13T23:04:01.359Z,34.40
2022-10-13T23:06:31.306Z,31.97
2022-10-13T23:09:02.965Z,28.93
2022-10-13T23:11:30.666Z,30.20
2022-10-13T23:13:58.439Z,30.60
2022-10-13T23:16:27.396Z,33.77
2022-10-13T23:18:55.871Z,33.33
2022-10-13T23:21:26.540Z,30.40
2022-10-13T23:23:58.241Z,25.57
2022-10-13T23:26:27.943Z,28.67
2022-10-13T23:28:56.570Z,27.37
2022-10-13T23:31:24.539Z,25.83
2022-10-13T23:33:52.696Z,25.57
2022-10-13T23:36:22.315Z,31.40
2022-10-13T23:38:54.311Z,34.23
2022-10-13T23:41:22.009Z,31.83
2022-10-13T23:43:51.049Z,25.43
2022-10-13T23:46:18.826Z,27.97
2022-10-13T23:48:46.990Z,28.57
2022-10-13T23:51:17.243Z,28.73
2022-10-13T23:53:45.303Z,27.87
2022-10-13T23:56:14.429Z,25.20
2022-10-13T23:58:44.233Z,29.53
